Time;durP1;ratioP1;P1;durP2;ratioP2;P2;SDS_P1;SDS_P2;PMS_P1;PMS_P2;Temp;Humidity;BMP_temperature;BMP_pressure;BME280_temperature;BME280_humidity;BME280_pressure;Samples;Min_cycle;Max_cycle;Signal;HPM_P1;HPM_P2
2023/05/24 00:04:09;;;;;;;;;;;;;;;10.25;52.31738;102599;;;;-69
2023/05/24 00:09:05;;;;;;;;;;;;;;;10.19;52.5332;102593.1;;;;-67
2023/05/24 00:11:51;;;;;;;0.2;0;;;;;;;;;;;;;-69
2023/05/24 00:14:05;;;;;;;;;;;;;;;10.13;52.6377;102593.6;;;;-69
2023/05/24 00:19:05;;;;;;;;;;;;;;;10.09;52.73145;102598.2;;;;-69
2023/05/24 00:24:05;;;;;;;;;;;;;;;10.06;52.7627;102596.6;;;;-70
2023/05/24 00:29:06;;;;;;;;;;;;;;;9.96;52.98438;102594;;;;-67
2023/05/24 00:34:05;;;;;;;;;;;;;;;9.92;52.93457;102590.3;;;;-70
2023/05/24 00:39:07;;;;;;;;;;;;;;;9.89;53.06445;102591.4;;;;-69
2023/05/24 00:41:52;;;;;;;0.2;0.1;;;;;;;;;;;;;-68
2023/05/24 00:44:05;;;;;;;;;;;;;;;9.84;53.10254;102590.7;;;;-68
2023/05/24 00:49:05;;;;;;;;;;;;;;;9.81;53.27734;102589.2;;;;-68
2023/05/24 00:54:05;;;;;;;;;;;;;;;9.79;53.30859;102584.9;;;;-68
2023/05/24 00:59:05;;;;;;;;;;;;;;;9.72;53.41113;102580.3;;;;-70
2023/05/24 01:04:06;;;;;;;;;;;;;;;9.73;53.52344;102578.5;;;;-68
2023/05/24 01:09:11;;;;;;;;;;;;;;;9.68;53.74121;102575.9;;;;-68
2023/05/24 01:12:03;;;;;;;0.2;0.1;;;;;;;;;;;;;-68
2023/05/24 01:14:13;;;;;;;;;;;;;;;9.64;53.53418;102574;;;;-67
2023/05/24 01:19:08;;;;;;;;;;;;;;;9.62;53.68848;102570.8;;;;-70
2023/05/24 01:24:16;;;;;;;;;;;;;;;9.56;54.07031;102571.9;;;;-69
2023/05/24 01:29:05;;;;;;;;;;;;;;;9.53;54.00098;102572.9;;;;-69
2023/05/24 01:34:08;;;;;;;;;;;;;;;9.47;54.16895;102571.5;;;;-70
2023/05/24 01:39:10;;;;;;;;;;;;;;;9.5;53.83984;102572.9;;;;-69
2023/05/24 01:42:01;;;;;;;0.2;0.1;;;;;;;;;;;;;-69
2023/05/24 01:44:10;;;;;;;;;;;;;;;9.4;54.07227;102568;;;;-69
2023/05/24 01:49:12;;;;;;;;;;;;;;;9.4;54.20703;102561.4;;;;-70
2023/05/24 01:54:09;;;;;;;;;;;;;;;9.35;54.24414;102559.9;;;;-69
2023/05/24 01:59:05;;;;;;;;;;;;;;;9.3;54.48242;102564;;;;-69
2023/05/24 02:04:06;;;;;;;;;;;;;;;9.22;54.42871;102557.5;;;;-69
2023/05/24 02:09:05;;;;;;;;;;;;;;;9.21;54.4834;102555;;;;-68
2023/05/24 02:11:54;;;;;;;0.3;0.2;;;;;;;;;;;;;-68
2023/05/24 02:14:05;;;;;;;;;;;;;;;9.17;54.33301;102557.2;;;;-67
2023/05/24 02:19:05;;;;;;;;;;;;;;;9.14;54.52832;102556.7;;;;-70
2023/05/24 02:24:05;;;;;;;;;;;;;;;9.12;54.59277;102552.8;;;;-68
2023/05/24 02:29:06;;;;;;;;;;;;;;;9.06;54.51953;102550.8;;;;-69
2023/05/24 02:34:05;;;;;;;;;;;;;;;9.04;54.46094;102546;;;;-68
2023/05/24 02:39:05;;;;;;;;;;;;;;;9.03;54.44922;102540.5;;;;-70
2023/05/24 02:41:55;;;;;;;0.2;0.1;;;;;;;;;;;;;-69
2023/05/24 02:44:06;;;;;;;;;;;;;;;9;54.70117;102548.9;;;;-69
2023/05/24 02:49:05;;;;;;;;;;;;;;;8.89;54.59766;102548;;;;-68
2023/05/24 02:54:06;;;;;;;;;;;;;;;8.86;54.75;102548;;;;-68
2023/05/24 02:59:06;;;;;;;;;;;;;;;8.87;54.83984;102542;;;;-69
2023/05/24 03:04:06;;;;;;;;;;;;;;;8.85;54.92773;102546.6;;;;-68
2023/05/24 03:09:04;;;;;;;;;;;;;;;8.78;55.08398;102546.9;;;;-68
2023/05/24 03:11:59;;;;;;;0.2;0.1;;;;;;;;;;;;;-68
2023/05/24 03:14:05;;;;;;;;;;;;;;;8.78;55.18359;102547.7;;;;-68
2023/05/24 03:19:05;;;;;;;;;;;;;;;8.72;55.15332;102552.6;;;;-70
2023/05/24 03:24:09;;;;;;;;;;;;;;;8.76;54.83691;102550.8;;;;-70
2023/05/24 03:29:04;;;;;;;;;;;;;;;8.68;55.01563;102552.3;;;;-69
2023/05/24 03:34:05;;;;;;;;;;;;;;;8.67;54.99219;102555.7;;;;-67
2023/05/24 03:39:06;;;;;;;;;;;;;;;8.72;55.16406;102553.3;;;;-69
2023/05/24 03:42:01;;;;;;;0.2;0.1;;;;;;;;;;;;;-70
2023/05/24 03:44:05;;;;;;;;;;;;;;;8.73;55.01172;102552.5;;;;-70
2023/05/24 03:49:05;;;;;;;;;;;;;;;8.74;55.25684;102553.1;;;;-69
2023/05/24 03:54:05;;;;;;;;;;;;;;;8.79;55.14063;102549;;;;-69
2023/05/24 03:59:05;;;;;;;;;;;;;;;8.79;55.0293;102547.7;;;;-69
2023/05/24 04:04:04;;;;;;;;;;;;;;;8.83;55.21289;102547.6;;;;-68
2023/05/24 04:09:05;;;;;;;;;;;;;;;8.87;55.30664;102544.9;;;;-70
2023/05/24 04:11:57;;;;;;;0.8;0.7;;;;;;;;;;;;;-68
2023/05/24 04:14:07;;;;;;;;;;;;;;;8.91;55.15527;102549.6;;;;-67
2023/05/24 04:19:05;;;;;;;;;;;;;;;8.94;55.31445;102550.5;;;;-69
2023/05/24 04:24:05;;;;;;;;;;;;;;;8.97;55.11816;102551.4;;;;-68
2023/05/24 04:29:08;;;;;;;;;;;;;;;9.02;55.1709;102551.6;;;;-68
2023/05/24 04:34:06;;;;;;;;;;;;;;;9.08;55;102547.1;;;;-68
2023/05/24 04:39:06;;;;;;;;;;;;;;;9.09;55.01172;102547.4;;;;-68
2023/05/24 04:41:59;;;;;;;0.2;0.1;;;;;;;;;;;;;-69
2023/05/24 04:44:11;;;;;;;;;;;;;;;9.14;54.92871;102544.5;;;;-71
2023/05/24 04:49:07;;;;;;;;;;;;;;;9.24;54.68652;102550.5;;;;-68
2023/05/24 04:54:07;;;;;;;;;;;;;;;9.3;54.72852;102546.2;;;;-69
2023/05/24 04:59:05;;;;;;;;;;;;;;;9.38;54.83789;102544.5;;;;-71
2023/05/24 05:04:07;;;;;;;;;;;;;;;9.42;54.94336;102552.2;;;;-69
2023/05/24 05:09:07;;;;;;;;;;;;;;;9.52;54.88965;102557.7;;;;-69
2023/05/24 05:11:59;;;;;;;0.3;0.1;;;;;;;;;;;;;-72
2023/05/24 05:14:05;;;;;;;;;;;;;;;9.64;54.82617;102559.1;;;;-70
2023/05/24 05:19:05;;;;;;;;;;;;;;;9.75;54.52832;102564.3;;;;-70
2023/05/24 05:24:05;;;;;;;;;;;;;;;9.86;54.64258;102563;;;;-69
2023/05/24 05:29:07;;;;;;;;;;;;;;;10.18;54.35938;102565.1;;;;-68
2023/05/24 05:34:08;;;;;;;;;;;;;;;10.75;53.77246;102572.6;;;;-69
2023/05/24 05:39:04;;;;;;;;;;;;;;;11.3;52.39844;102574.7;;;;-68
2023/05/24 05:42:01;;;;;;;0.3;0.1;;;;;;;;;;;;;-69
2023/05/24 05:44:06;;;;;;;;;;;;;;;11.82;51.79004;102579.5;;;;-69
2023/05/24 05:49:05;;;;;;;;;;;;;;;12.46;51.40527;102568.2;;;;-70
2023/05/24 05:54:12;;;;;;;;;;;;;;;13.18;51.26563;102562.5;;;;-69
2023/05/24 05:59:06;;;;;;;;;;;;;;;13.76;51.14355;102563.2;;;;-68
2023/05/24 06:04:04;;;;;;;;;;;;;;;14.16;49.97461;102560.7;;;;-70
2023/05/24 06:09:05;;;;;;;;;;;;;;;14.69;49.09863;102572.9;;;;-70
2023/05/24 06:12:02;;;;;;;0.2;0.1;;;;;;;;;;;;;-69
2023/05/24 06:14:06;;;;;;;;;;;;;;;15.18;49.3457;102574.5;;;;-69
2023/05/24 06:19:05;;;;;;;;;;;;;;;15.62;48.28711;102569.3;;;;-70
2023/05/24 06:24:12;;;;;;;;;;;;;;;15.99;47.74023;102578.3;;;;-69
2023/05/24 06:29:06;;;;;;;;;;;;;;;16.34;49.02246;102569.7;;;;-69
2023/05/24 06:34:05;;;;;;;;;;;;;;;16.71;48.54297;102564.2;;;;-70
2023/05/24 06:39:08;;;;;;;;;;;;;;;16.84;47.83105;102563.2;;;;-69
2023/05/24 06:42:02;;;;;;;0.2;0.1;;;;;;;;;;;;;-69
2023/05/24 06:44:05;;;;;;;;;;;;;;;16.46;48.62793;102565.3;;;;-71
2023/05/24 06:49:07;;;;;;;;;;;;;;;16.72;49.40527;102568.5;;;;-69
2023/05/24 06:54:05;;;;;;;;;;;;;;;17.38;48.63867;102568.8;;;;-70
2023/05/24 06:59:05;;;;;;;;;;;;;;;17.99;46.875;102572.1;;;;-70
2023/05/24 07:04:09;;;;;;;;;;;;;;;18.16;46.51855;102575.8;;;;-69
2023/05/24 07:09:06;;;;;;;;;;;;;;;18.38;46.43945;102577.5;;;;-69
2023/05/24 07:12:05;;;;;;;0.3;0.1;;;;;;;;;;;;;-71
2023/05/24 07:14:05;;;;;;;;;;;;;;;18.49;46.20117;102582.9;;;;-68
2023/05/24 07:19:06;;;;;;;;;;;;;;;18.36;46.5293;102578.3;;;;-68
2023/05/24 07:24:04;;;;;;;;;;;;;;;18.08;47.05664;102582.7;;;;-68
2023/05/24 07:29:07;;;;;;;;;;;;;;;17.79;47.54785;102581.6;;;;-70
2023/05/24 07:34:05;;;;;;;;;;;;;;;17.99;47.7627;102574.6;;;;-70
2023/05/24 07:39:05;;;;;;;;;;;;;;;18.42;46.94434;102567.7;;;;-69
2023/05/24 07:42:07;;;;;;;0.2;0.1;;;;;;;;;;;;;-69
2023/05/24 07:44:04;;;;;;;;;;;;;;;18.76;45.93262;102577.5;;;;-69
2023/05/24 07:49:07;;;;;;;;;;;;;;;19.06;45.78125;102573.7;;;;-69
2023/05/24 07:54:05;;;;;;;;;;;;;;;19.54;45.20313;102572.4;;;;-69
2023/05/24 07:59:06;;;;;;;;;;;;;;;19.86;44.74414;102570.8;;;;-70
2023/05/24 08:04:08;;;;;;;;;;;;;;;20.18;44.125;102572.2;;;;-69
2023/05/24 08:09:08;;;;;;;;;;;;;;;20.43;43.88672;102569.9;;;;-69
2023/05/24 08:12:09;;;;;;;0.2;0.1;;;;;;;;;;;;;-70
2023/05/24 08:14:05;;;;;;;;;;;;;;;20.77;43.14258;102563.2;;;;-68
2023/05/24 08:19:05;;;;;;;;;;;;;;;21.12;43.00391;102572.8;;;;-70
2023/05/24 08:24:07;;;;;;;;;;;;;;;21.42;42.6084;102571.6;;;;-68
2023/05/24 08:29:05;;;;;;;;;;;;;;;21.76;42.19434;102576.5;;;;-68
2023/05/24 08:34:04;;;;;;;;;;;;;;;22.05;41.99121;102578.8;;;;-68
2023/05/24 08:39:05;;;;;;;;;;;;;;;22.32;41.30371;102573.5;;;;-68
2023/05/24 08:42:12;;;;;;;0.2;0.1;;;;;;;;;;;;;-68
2023/05/24 08:44:05;;;;;;;;;;;;;;;22.23;41.00781;102576.2;;;;-69
2023/05/24 08:49:06;;;;;;;;;;;;;;;22.1;40.91504;102576.3;;;;-70
2023/05/24 08:54:07;;;;;;;;;;;;;;;21.82;41.25781;102581.9;;;;-69
2023/05/24 08:59:04;;;;;;;;;;;;;;;21.85;41.58203;102577.8;;;;-69
2023/05/24 09:04:07;;;;;;;;;;;;;;;22.05;41.10645;102577.5;;;;-69
2023/05/24 09:09:06;;;;;;;;;;;;;;;22.08;41.27051;102576.4;;;;-68
2023/05/24 09:12:20;;;;;;;3.1;0.4;;;;;;;;;;;;;-70
2023/05/24 09:14:05;;;;;;;;;;;;;;;22.29;40.97949;102562.7;;;;-69
2023/05/24 09:19:05;;;;;;;;;;;;;;;22.43;40.50879;102567.9;;;;-69
2023/05/24 09:24:05;;;;;;;;;;;;;;;22.32;40.50977;102567.4;;;;-68
2023/05/24 09:29:09;;;;;;;;;;;;;;;22.06;40.24512;102574.2;;;;-70
2023/05/24 09:34:05;;;;;;;;;;;;;;;21.76;40.45996;102573.5;;;;-69
2023/05/24 09:39:15;;;;;;;;;;;;;;;21.56;41.2334;102572;;;;-69
2023/05/24 09:42:23;;;;;;;0.3;0.1;;;;;;;;;;;;;-69
2023/05/24 09:44:05;;;;;;;;;;;;;;;21.98;41.45703;102564.6;;;;-70
2023/05/24 09:49:08;;;;;;;;;;;;;;;22.49;41.11328;102567;;;;-70
2023/05/24 09:54:05;;;;;;;;;;;;;;;22.77;40.40137;102558.3;;;;-69
2023/05/24 09:59:08;;;;;;;;;;;;;;;22.91;40.44922;102563.5;;;;-69
2023/05/24 10:04:05;;;;;;;;;;;;;;;23.09;39.81934;102569.2;;;;-70
2023/05/24 10:09:09;;;;;;;;;;;;;;;22.87;39.52344;102568.3;;;;-69
2023/05/24 10:12:24;;;;;;;0.3;0.1;;;;;;;;;;;;;-69
2023/05/24 10:14:06;;;;;;;;;;;;;;;22.64;40.13672;102565.1;;;;-68
2023/05/24 10:19:05;;;;;;;;;;;;;;;22.44;40.03809;102568.1;;;;-68
2023/05/24 10:29:08;;;;;;;;;;;;;;;22.24;40.83691;102573.2;;;;-69
2023/05/24 10:34:18;;;;;;;;;;;;;;;22.15;40.77148;102576.3;;;;-69
2023/05/24 10:39:05;;;;;;;;;;;;;;;22.32;40.77441;102570.4;;;;-69
2023/05/24 10:42:27;;;;;;;0.2;0.1;;;;;;;;;;;;;-69
2023/05/24 10:44:05;;;;;;;;;;;;;;;22.86;40.9043;102574.6;;;;-69
2023/05/24 10:49:08;;;;;;;;;;;;;;;23.19;39.97852;102581.7;;;;-69
2023/05/24 10:54:13;;;;;;;;;;;;;;;23.39;39.48828;102581.2;;;;-69
2023/05/24 10:59:07;;;;;;;;;;;;;;;23.24;39.84473;102578.1;;;;-68
2023/05/24 11:04:21;;;;;;;;;;;;;;;23.02;39.95215;102578;;;;-69
2023/05/24 11:09:09;;;;;;;;;;;;;;;22.93;40.27832;102579.1;;;;-69
2023/05/24 11:12:37;;;;;;;0.9;0.2;;;;;;;;;;;;;-71
2023/05/24 11:14:05;;;;;;;;;;;;;;;22.9;40.55078;102571.3;;;;-69
2023/05/24 11:19:07;;;;;;;;;;;;;;;23.03;40.4248;102565;;;;-69
2023/05/24 11:24:05;;;;;;;;;;;;;;;23.08;40.30371;102567.2;;;;-68
2023/05/24 11:29:06;;;;;;;;;;;;;;;22.96;40.28027;102568.9;;;;-68
2023/05/24 11:34:08;;;;;;;;;;;;;;;22.77;40.10156;102571;;;;-68
2023/05/24 11:39:07;;;;;;;;;;;;;;;22.65;40.08008;102566.8;;;;-69
2023/05/24 11:42:36;;;;;;;0.2;0;;;;;;;;;;;;;-70
2023/05/24 11:44:05;;;;;;;;;;;;;;;22.59;40.04004;102566.9;;;;-69
2023/05/24 11:49:05;;;;;;;;;;;;;;;22.51;40.24023;102566.4;;;;-70
2023/05/24 11:54:05;;;;;;;;;;;;;;;22.48;40.04199;102563.2;;;;-69
2023/05/24 11:59:11;;;;;;;;;;;;;;;22.46;39.90137;102562.6;;;;-68
2023/05/24 12:04:04;;;;;;;;;;;;;;;22.48;39.98438;102563.7;;;;-69
2023/05/24 12:09:07;;;;;;;;;;;;;;;22.54;39.90918;102564.1;;;;-70
2023/05/24 12:12:37;;;;;;;0.2;0;;;;;;;;;;;;;-69
2023/05/24 12:14:07;;;;;;;;;;;;;;;22.52;39.87207;102566.6;;;;-70
2023/05/24 12:19:05;;;;;;;;;;;;;;;22.5;39.88184;102567.2;;;;-69
2023/05/24 12:24:07;;;;;;;;;;;;;;;22.49;39.77832;102566.5;;;;-68
2023/05/24 12:29:10;;;;;;;;;;;;;;;22.49;40.04297;102565.3;;;;-70
2023/05/24 12:34:06;;;;;;;;;;;;;;;22.43;40.04785;102566.3;;;;-71
2023/05/24 12:39:07;;;;;;;;;;;;;;;22.36;40.04199;102567.6;;;;-68
2023/05/24 12:42:40;;;;;;;0.2;0;;;;;;;;;;;;;-69
2023/05/24 12:44:06;;;;;;;;;;;;;;;22.32;39.96875;102566.5;;;;-68
2023/05/24 12:49:07;;;;;;;;;;;;;;;22.25;40.1709;102563;;;;-69
2023/05/24 12:54:05;;;;;;;;;;;;;;;22.27;40.24121;102565.1;;;;-69
2023/05/24 12:59:08;;;;;;;;;;;;;;;22.33;40.0166;102568.7;;;;-71
2023/05/24 13:04:09;;;;;;;;;;;;;;;22.29;39.96777;102566.6;;;;-71
2023/05/24 13:09:05;;;;;;;;;;;;;;;22.24;40.2041;102571.6;;;;-72
2023/05/24 13:12:45;;;;;;;0.2;0.1;;;;;;;;;;;;;-71
2023/05/24 13:14:05;;;;;;;;;;;;;;;22.24;39.91699;102569.7;;;;-72
2023/05/24 13:19:04;;;;;;;;;;;;;;;22.27;40.11426;102569.3;;;;-71
2023/05/24 13:24:05;;;;;;;;;;;;;;;22.36;39.98535;102576.5;;;;-71
2023/05/24 13:29:05;;;;;;;;;;;;;;;22.45;39.95801;102578.3;;;;-70
2023/05/24 13:34:09;;;;;;;;;;;;;;;22.41;39.73633;102577.7;;;;-71
2023/05/24 13:39:05;;;;;;;;;;;;;;;22.36;40.09961;102572.7;;;;-71
2023/05/24 13:42:50;;;;;;;0.2;0.1;;;;;;;;;;;;;-72
2023/05/24 13:44:05;;;;;;;;;;;;;;;22.34;40.00586;102576.4;;;;-72
2023/05/24 13:49:05;;;;;;;;;;;;;;;22.28;39.90918;102571.9;;;;-70
2023/05/24 13:54:06;;;;;;;;;;;;;;;22.21;39.75293;102571;;;;-71
2023/05/24 13:59:05;;;;;;;;;;;;;;;22.14;40.01074;102572.5;;;;-70
2023/05/24 14:04:06;;;;;;;;;;;;;;;21.99;40.69922;102567.1;;;;-70
2023/05/24 14:09:05;;;;;;;;;;;;;;;22.01;40.26367;102572.6;;;;-71
2023/05/24 14:12:52;;;;;;;0.2;0.1;;;;;;;;;;;;;-71
2023/05/24 14:14:04;;;;;;;;;;;;;;;22.01;40.49414;102570.1;;;;-71
2023/05/24 14:19:05;;;;;;;;;;;;;;;21.99;40.66504;102569.9;;;;-71
2023/05/24 14:24:05;;;;;;;;;;;;;;;22.03;40.2998;102569.4;;;;-70
2023/05/24 14:29:06;;;;;;;;;;;;;;;22.21;39.81055;102572.9;;;;-71
2023/05/24 14:34:06;;;;;;;;;;;;;;;22.36;39.47852;102567.4;;;;-70
2023/05/24 14:39:07;;;;;;;;;;;;;;;22.39;39.57422;102570.9;;;;-70
2023/05/24 14:42:55;;;;;;;0.3;0.1;;;;;;;;;;;;;-71
2023/05/24 14:44:05;;;;;;;;;;;;;;;22.45;39.42871;102568.9;;;;-70
2023/05/24 14:49:05;;;;;;;;;;;;;;;22.54;39.64453;102560.5;;;;-73
2023/05/24 14:54:05;;;;;;;;;;;;;;;22.77;39.53809;102564;;;;-70
2023/05/24 14:59:05;;;;;;;;;;;;;;;22.69;39.27734;102565.8;;;;-70
2023/05/24 15:04:06;;;;;;;;;;;;;;;22.59;39.28125;102574.6;;;;-70
2023/05/24 15:09:05;;;;;;;;;;;;;;;22.54;39.27637;102571.1;;;;-69
2023/05/24 15:13:00;;;;;;;0.2;0.1;;;;;;;;;;;;;-70
2023/05/24 15:14:05;;;;;;;;;;;;;;;22.56;39.24316;102576.1;;;;-70
2023/05/24 15:19:08;;;;;;;;;;;;;;;22.61;39.24805;102580.3;;;;-70
2023/05/24 15:24:04;;;;;;;;;;;;;;;22.61;39.0752;102578.5;;;;-70
2023/05/24 15:29:05;;;;;;;;;;;;;;;22.51;39.36523;102578.7;;;;-69
2023/05/24 15:34:05;;;;;;;;;;;;;;;22.39;39.05566;102575.5;;;;-69
2023/05/24 15:39:05;;;;;;;;;;;;;;;22.28;39.88672;102574.3;;;;-71
2023/05/24 15:44:08;;;;;;;;;;;;;;;22.17;40.32422;102582.3;;;;-70
2023/05/24 15:49:04;;;;;;;;;;;;;;;22.06;40.46387;102580.8;;;;-71
2023/05/24 15:54:05;;;;;;;;;;;;;;;21.93;40.41797;102584.4;;;;-70
2023/05/24 15:59:05;;;;;;;;;;;;;;;21.84;40.40918;102582.1;;;;-71
2023/05/24 16:04:05;;;;;;;;;;;;;;;21.79;40.57715;102585.9;;;;-70
2023/05/24 16:09:06;;;;;;;;;;;;;;;21.7;40.53418;102589.1;;;;-70
2023/05/24 16:13:06;;;;;;;1.6;0.5;;;;;;;;;;;;;-70
2023/05/24 16:14:05;;;;;;;;;;;;;;;21.62;40.63086;102593.5;;;;-69
2023/05/24 16:19:08;;;;;;;;;;;;;;;21.53;40.85156;102592.5;;;;-69
2023/05/24 16:24:05;;;;;;;;;;;;;;;21.42;40.75;102586.5;;;;-69
2023/05/24 16:29:05;;;;;;;;;;;;;;;21.32;41.33789;102579.3;;;;-69
2023/05/24 16:34:05;;;;;;;;;;;;;;;21.25;41.44629;102584.9;;;;-70
2023/05/24 16:39:10;;;;;;;;;;;;;;;21.14;41.69922;102585.4;;;;-70
2023/05/24 16:43:09;;;;;;;0.2;0.1;;;;;;;;;;;;;-71
2023/05/24 16:44:04;;;;;;;;;;;;;;;20.96;41.90039;102583;;;;-72
2023/05/24 16:49:05;;;;;;;;;;;;;;;20.8;42.01074;102586.7;;;;-70
2023/05/24 16:54:11;;;;;;;;;;;;;;;20.64;42.39746;102588.7;;;;-69
2023/05/24 16:59:05;;;;;;;;;;;;;;;20.5;42.60156;102576.5;;;;-69
2023/05/24 17:04:06;;;;;;;;;;;;;;;20.42;42.67285;102581.7;;;;-70
2023/05/24 17:09:05;;;;;;;;;;;;;;;20.35;42.84961;102582.2;;;;-70
2023/05/24 17:13:13;;;;;;;0.3;0.1;;;;;;;;;;;;;-69
2023/05/24 17:14:11;;;;;;;;;;;;;;;20.27;42.95703;102581.5;;;;-70
2023/05/24 17:19:10;;;;;;;;;;;;;;;20.22;43.04297;102587.2;;;;-69
2023/05/24 17:24:05;;;;;;;;;;;;;;;20.2;42.97266;102588.7;;;;-71
2023/05/24 17:29:14;;;;;;;;;;;;;;;20.18;43.1543;102586.4;;;;-71
2023/05/24 17:34:06;;;;;;;;;;;;;;;20.07;43.25684;102593.2;;;;-71
2023/05/24 17:39:07;;;;;;;;;;;;;;;20.02;43.19629;102587.3;;;;-72
2023/05/24 17:43:16;;;;;;;0.3;0.2;;;;;;;;;;;;;-70
2023/05/24 17:44:05;;;;;;;;;;;;;;;19.99;43.4209;102582.8;;;;-71
2023/05/24 17:49:05;;;;;;;;;;;;;;;19.86;43.46582;102590.7;;;;-70
2023/05/24 17:54:09;;;;;;;;;;;;;;;19.74;43.64844;102587.3;;;;-70
2023/05/24 17:59:09;;;;;;;;;;;;;;;19.56;44.04102;102587.9;;;;-70
2023/05/24 18:04:09;;;;;;;;;;;;;;;19.39;44.37695;102586.1;;;;-70
2023/05/24 18:09:05;;;;;;;;;;;;;;;19.25;44.375;102586.2;;;;-71
2023/05/24 18:13:30;;;;;;;0.2;0.1;;;;;;;;;;;;;-70
2023/05/24 18:14:08;;;;;;;;;;;;;;;19.11;44.98926;102577.7;;;;-70
2023/05/24 18:19:25;;;;;;;;;;;;;;;19.01;44.95605;102586.4;;;;-70
2023/05/24 18:24:08;;;;;;;;;;;;;;;18.9;45.30957;102588.3;;;;-70
2023/05/24 18:29:05;;;;;;;;;;;;;;;18.81;45.39063;102595.1;;;;-69
2023/05/24 18:34:05;;;;;;;;;;;;;;;18.65;45.5;102595.8;;;;-70
2023/05/24 18:39:05;;;;;;;;;;;;;;;18.54;45.05664;102599.5;;;;-70
2023/05/24 18:43:23;;;;;;;0.2;0;;;;;;;;;;;;;-70
2023/05/24 18:44:10;;;;;;;;;;;;;;;18.37;46.04102;102596.2;;;;-69
2023/05/24 18:49:09;;;;;;;;;;;;;;;18.22;45.86523;102602;;;;-70
2023/05/24 18:54:07;;;;;;;;;;;;;;;18.09;45.76074;102605.8;;;;-69
2023/05/24 18:59:04;;;;;;;;;;;;;;;17.95;45.92871;102603;;;;-69
2023/05/24 19:04:05;;;;;;;;;;;;;;;17.83;45.71094;102604.8;;;;-70
2023/05/24 19:09:13;;;;;;;;;;;;;;;17.69;45.91309;102611.3;;;;-70
2023/05/24 19:13:26;;;;;;;0.8;0.5;;;;;;;;;;;;;-69
2023/05/24 19:14:07;;;;;;;;;;;;;;;17.54;46.2373;102611.6;;;;-71
2023/05/24 19:19:14;;;;;;;;;;;;;;;17.37;45.9248;102614.2;;;;-70
2023/05/24 19:24:13;;;;;;;;;;;;;;;17.21;46.39648;102617.3;;;;-72
2023/05/24 19:29:07;;;;;;;;;;;;;;;17.01;46.61328;102628.7;;;;-70
2023/05/24 19:34:05;;;;;;;;;;;;;;;16.82;46.12891;102631.4;;;;-71
2023/05/24 19:39:07;;;;;;;;;;;;;;;16.66;46.62207;102633.4;;;;-69
2023/05/24 19:43:29;;;;;;;0.2;0.1;;;;;;;;;;;;;-70
2023/05/24 19:44:07;;;;;;;;;;;;;;;16.47;46.95313;102642;;;;-70
2023/05/24 19:49:11;;;;;;;;;;;;;;;16.3;46.9248;102646.5;;;;-70
2023/05/24 19:54:07;;;;;;;;;;;;;;;16.16;47.30469;102652.3;;;;-70
2023/05/24 19:59:06;;;;;;;;;;;;;;;16;47.37793;102653.7;;;;-70
2023/05/24 20:04:05;;;;;;;;;;;;;;;15.85;47.53223;102656.1;;;;-70
2023/05/24 20:09:05;;;;;;;;;;;;;;;15.71;47.57422;102665.4;;;;-71
2023/05/24 20:13:30;;;;;;;0.2;0;;;;;;;;;;;;;-70
2023/05/24 20:14:05;;;;;;;;;;;;;;;15.52;47.92578;102669;;;;-71
2023/05/24 20:19:05;;;;;;;;;;;;;;;15.36;48.48438;102669;;;;-71
2023/05/24 20:24:09;;;;;;;;;;;;;;;15.21;48.45703;102678.9;;;;-69
2023/05/24 20:29:05;;;;;;;;;;;;;;;15.06;48.85742;102687.9;;;;-70
2023/05/24 20:34:07;;;;;;;;;;;;;;;14.93;49.02246;102690.6;;;;-71
2023/05/24 20:39:05;;;;;;;;;;;;;;;14.76;48.91406;102690.1;;;;-70
2023/05/24 20:43:33;;;;;;;0.2;0;;;;;;;;;;;;;-70
2023/05/24 20:44:05;;;;;;;;;;;;;;;14.62;49.54199;102690.4;;;;-69
2023/05/24 20:49:06;;;;;;;;;;;;;;;14.5;49.59473;102690.2;;;;-69
2023/05/24 20:54:05;;;;;;;;;;;;;;;14.37;49.79492;102686.7;;;;-69
2023/05/24 20:59:06;;;;;;;;;;;;;;;14.22;49.67676;102687.6;;;;-70
2023/05/24 21:04:05;;;;;;;;;;;;;;;14.11;50.2832;102687.8;;;;-72
2023/05/24 21:09:05;;;;;;;;;;;;;;;14.01;50.31738;102690.7;;;;-70
2023/05/24 21:13:35;;;;;;;0.7;0.5;;;;;;;;;;;;;-70
2023/05/24 21:14:06;;;;;;;;;;;;;;;13.9;50.27051;102691.2;;;;-68
2023/05/24 21:19:06;;;;;;;;;;;;;;;13.79;50.62891;102695.2;;;;-70
2023/05/24 21:24:07;;;;;;;;;;;;;;;13.7;50.42676;102694.8;;;;-69
2023/05/24 21:29:09;;;;;;;;;;;;;;;13.58;50.72754;102697.7;;;;-70
2023/05/24 21:34:04;;;;;;;;;;;;;;;13.49;50.98828;102701.3;;;;-69
2023/05/24 21:39:06;;;;;;;;;;;;;;;13.38;51.20996;102704;;;;-69
2023/05/24 21:43:37;;;;;;;0.2;0.1;;;;;;;;;;;;;-70
2023/05/24 21:44:08;;;;;;;;;;;;;;;13.3;51.06641;102713.1;;;;-70
2023/05/24 21:49:04;;;;;;;;;;;;;;;13.22;51.43945;102716.1;;;;-69
2023/05/24 21:54:08;;;;;;;;;;;;;;;13.11;51.52734;102715.9;;;;-71
2023/05/24 21:59:05;;;;;;;;;;;;;;;13.07;51.5791;102719.3;;;;-70
2023/05/24 22:04:05;;;;;;;;;;;;;;;12.97;51.98145;102733.6;;;;-69
2023/05/24 22:09:05;;;;;;;;;;;;;;;12.89;51.88379;102731;;;;-71
2023/05/24 22:13:39;;;;;;;0.2;0;;;;;;;;;;;;;-69
2023/05/24 22:14:04;;;;;;;;;;;;;;;12.83;52.02148;102734;;;;-70
2023/05/24 22:19:05;;;;;;;;;;;;;;;12.79;52.09668;102739.6;;;;-69
2023/05/24 22:24:05;;;;;;;;;;;;;;;12.7;51.9502;102742.3;;;;-70
2023/05/24 22:29:05;;;;;;;;;;;;;;;12.66;52.19141;102748.3;;;;-71
2023/05/24 22:34:08;;;;;;;;;;;;;;;12.61;52.53223;102748;;;;-69
2023/05/24 22:39:05;;;;;;;;;;;;;;;12.55;52.2793;102751;;;;-69
2023/05/24 22:43:40;;;;;;;0.2;0;;;;;;;;;;;;;-70
2023/05/24 22:44:04;;;;;;;;;;;;;;;12.5;52.71094;102749.9;;;;-69
2023/05/24 22:49:05;;;;;;;;;;;;;;;12.41;52.93555;102757.1;;;;-69
2023/05/24 22:54:05;;;;;;;;;;;;;;;12.36;52.7168;102752.2;;;;-71
2023/05/24 22:59:19;;;;;;;;;;;;;;;12.33;52.8584;102747.2;;;;-69
2023/05/24 23:09:04;;;;;;;;;;;;;;;12.22;53.40625;102756.4;;;;-69
2023/05/24 23:13:42;;;;;;;0.2;0.1;;;;;;;;;;;;;-69
2023/05/24 23:14:07;;;;;;;;;;;;;;;12.17;53.19824;102755;;;;-69
2023/05/24 23:19:07;;;;;;;;;;;;;;;12.18;53.05176;102755;;;;-70
2023/05/24 23:24:05;;;;;;;;;;;;;;;12.1;53.50195;102750;;;;-69
2023/05/24 23:29:07;;;;;;;;;;;;;;;12.09;53.47852;102745.1;;;;-70
2023/05/24 23:34:04;;;;;;;;;;;;;;;12;53.64648;102741.8;;;;-69
2023/05/24 23:39:04;;;;;;;;;;;;;;;11.99;53.37695;102749.9;;;;-69
2023/05/24 23:43:44;;;;;;;0.2;0.1;;;;;;;;;;;;;-70
2023/05/24 23:44:04;;;;;;;;;;;;;;;11.9;53.56738;102746;;;;-69
2023/05/24 23:49:06;;;;;;;;;;;;;;;11.93;53.40332;102750.8;;;;-70
2023/05/24 23:54:07;;;;;;;;;;;;;;;11.82;53.84961;102745.7;;;;-69
2023/05/24 23:59:07;;;;;;;;;;;;;;;11.87;53.67578;102745.9;;;;-69
